Time;durP1;ratioP1;P1;durP2;ratioP2;P2;SDS_P1;SDS_P2;PMS_P1;PMS_P2;Temp;Humidity;BMP_temperature;BMP_pressure;BME280_temperature;BME280_humidity;BME280_pressure;Samples;Min_cycle;Max_cycle;Signal;HPM_P1;HPM_P2
2022/10/28 00:04:57;;;;;;;5.80;3.08;;;16.20;99.90;;;;;;10457068;28;20470;-62
2022/10/28 00:09:58;;;;;;;5.95;2.88;;;16.20;99.90;;;;;;10455480;28;20051;-61
2022/10/28 00:14:58;;;;;;;3.80;2.80;;;16.20;99.90;;;;;;10451098;28;20056;-62
2022/10/28 00:19:59;;;;;;;5.80;3.08;;;16.20;99.90;;;;;;10455577;28;20048;-62
2022/10/28 00:25:00;;;;;;;6.53;3.15;;;16.20;99.90;;;;;;10455328;28;20029;-62
2022/10/28 00:30:01;;;;;;;6.82;3.10;;;16.20;99.90;;;;;;10451362;28;20396;-62
2022/10/28 00:35:02;;;;;;;4.82;2.60;;;16.20;99.90;;;;;;10456792;28;20113;-61
2022/10/28 01:22:18;;;;;;;4.90;2.90;;;16.10;99.90;;;;;;7890017;28;20107;-62
2022/10/28 01:27:37;;;;;;;5.70;3.25;;;16.00;99.90;;;;;;10463623;28;20086;-65
2022/10/28 01:33:16;;;;;;;4.95;2.88;;;16.00;99.90;;;;;;10451402;28;20035;-62
2022/10/28 02:20:08;;;;;;;5.25;3.00;;;16.00;99.90;;;;;;10461160;28;20041;-62
2022/10/28 02:25:40;;;;;;;5.03;3.10;;;16.00;99.90;;;;;;10459441;28;20036;-62
2022/10/28 02:30:57;;;;;;;7.32;2.97;;;16.00;99.90;;;;;;10452318;28;20036;-65
2022/10/28 02:36:05;;;;;;;4.72;3.10;;;16.00;99.90;;;;;;10454494;28;20036;-62
2022/10/28 02:41:18;;;;;;;4.30;2.90;;;15.90;99.90;;;;;;10456577;28;20024;-63
2022/10/28 02:46:20;;;;;;;6.22;3.58;;;15.90;99.90;;;;;;10459429;28;20272;-63
2022/10/28 02:51:27;;;;;;;5.25;3.05;;;15.90;99.90;;;;;;10460872;28;20405;-62
2022/10/28 02:56:33;;;;;;;12.02;4.65;;;15.90;99.90;;;;;;10455842;28;20060;-61
2022/10/28 03:01:33;;;;;;;7.30;3.25;;;15.90;99.90;;;;;;10457764;28;21791;-62
2022/10/28 03:06:34;;;;;;;5.68;3.13;;;15.90;99.90;;;;;;10459177;28;20031;-61
2022/10/28 03:11:35;;;;;;;5.22;3.38;;;15.90;99.90;;;;;;10457383;28;20025;-61
2022/10/28 03:16:35;;;;;;;5.32;3.28;;;15.80;99.90;;;;;;10459319;28;20029;-66
2022/10/28 03:21:36;;;;;;;6.15;3.15;;;15.80;99.90;;;;;;10462824;28;20127;-65
2022/10/28 03:26:37;;;;;;;5.82;3.10;;;15.90;99.90;;;;;;10473731;28;20029;-62
2022/10/28 03:31:37;;;;;;;4.68;3.30;;;15.80;99.90;;;;;;10458707;28;20052;-62
2022/10/28 03:36:38;;;;;;;5.10;3.30;;;15.80;99.90;;;;;;10457192;28;20432;-65
2022/10/28 03:41:39;;;;;;;5.57;3.15;;;15.80;99.90;;;;;;10456197;28;20521;-61
2022/10/28 03:46:40;;;;;;;5.68;3.47;;;15.80;99.90;;;;;;10450843;28;20090;-62
2022/10/28 03:51:40;;;;;;;7.57;3.72;;;15.80;99.90;;;;;;10456849;28;20025;-64
2022/10/28 03:56:41;;;;;;;5.07;3.45;;;15.80;99.90;;;;;;10452205;28;20398;-62
2022/10/28 04:01:42;;;;;;;4.10;2.90;;;15.80;99.90;;;;;;10456617;28;20092;-61
2022/10/28 04:06:42;;;;;;;7.03;3.67;;;15.80;99.90;;;;;;10455326;28;20029;-62
2022/10/28 04:11:48;;;;;;;7.07;3.35;;;15.80;99.90;;;;;;10454859;28;20035;-62
2022/10/28 04:16:48;;;;;;;6.20;3.65;;;15.70;99.90;;;;;;10454484;28;20421;-61
2022/10/28 04:21:49;;;;;;;9.02;4.05;;;15.80;99.90;;;;;;10450160;28;20045;-61
2022/10/28 04:26:50;;;;;;;5.93;3.70;;;15.70;99.90;;;;;;10454141;28;20284;-61
2022/10/28 04:31:51;;;;;;;6.55;3.85;;;15.70;99.90;;;;;;10456957;28;20017;-61
2022/10/28 04:36:52;;;;;;;7.68;3.85;;;15.70;99.90;;;;;;10452532;28;20124;-61
2022/10/28 04:41:53;;;;;;;7.30;4.00;;;15.70;99.90;;;;;;10454941;28;20028;-62
2022/10/28 04:46:55;;;;;;;8.90;4.28;;;15.70;99.90;;;;;;10451280;28;20039;-62
2022/10/28 04:51:56;;;;;;;4.95;3.28;;;15.70;99.90;;;;;;10452407;28;20112;-61
2022/10/28 04:56:57;;;;;;;6.13;3.53;;;15.70;99.90;;;;;;10455481;28;20396;-62
2022/10/28 05:01:57;;;;;;;8.90;3.90;;;15.70;99.90;;;;;;10454701;28;20028;-62
2022/10/28 05:06:58;;;;;;;7.20;3.50;;;15.60;99.90;;;;;;10455826;28;20069;-62
2022/10/28 05:11:59;;;;;;;7.20;3.80;;;15.70;99.90;;;;;;10452017;28;20432;-62
2022/10/28 05:17:00;;;;;;;6.88;4.32;;;15.60;99.90;;;;;;10454835;28;20130;-62
2022/10/28 05:22:00;;;;;;;10.70;4.53;;;15.70;99.90;;;;;;10465074;28;20557;-62
2022/10/28 05:27:01;;;;;;;6.60;3.95;;;15.60;99.90;;;;;;10463201;28;20505;-62
2022/10/28 05:32:02;;;;;;;7.30;4.20;;;15.60;99.90;;;;;;10460955;28;20021;-62
2022/10/28 05:37:03;;;;;;;6.35;4.13;;;15.60;99.90;;;;;;10456422;28;20191;-61
2022/10/28 05:42:03;;;;;;;7.07;4.03;;;15.60;99.90;;;;;;10461395;28;20032;-61
2022/10/28 05:47:04;;;;;;;6.10;3.80;;;15.60;99.90;;;;;;10460306;28;20025;-61
2022/10/28 05:52:05;;;;;;;6.68;3.95;;;15.60;99.90;;;;;;10462610;28;20519;-61
2022/10/28 05:57:05;;;;;;;7.20;4.20;;;15.60;99.90;;;;;;10464796;28;20096;-62
2022/10/28 06:02:12;;;;;;;8.45;4.15;;;15.60;99.90;;;;;;10450450;28;20744;-63
2022/10/28 06:07:13;;;;;;;7.45;4.55;;;15.60;99.90;;;;;;10451933;28;20473;-62
2022/10/28 06:12:14;;;;;;;9.30;3.70;;;15.60;99.90;;;;;;10458477;28;20040;-62
2022/10/28 06:17:14;;;;;;;6.80;3.88;;;15.50;99.90;;;;;;10453516;28;20040;-62
2022/10/28 06:22:15;;;;;;;7.78;4.32;;;15.50;99.90;;;;;;10456218;28;20041;-64
2022/10/28 06:27:16;;;;;;;7.97;4.57;;;15.50;99.90;;;;;;10459700;28;20044;-60
2022/10/28 06:32:17;;;;;;;6.15;3.92;;;15.60;99.90;;;;;;10460779;28;20267;-63
2022/10/28 06:37:17;;;;;;;6.10;3.55;;;15.60;99.90;;;;;;10463144;28;20068;-61
2022/10/28 06:42:19;;;;;;;7.38;4.60;;;15.50;99.90;;;;;;10458891;28;20082;-61
2022/10/28 06:47:20;;;;;;;4.70;3.33;;;15.60;99.90;;;;;;10397160;28;20870;-61
2022/10/28 06:52:21;;;;;;;7.18;4.00;;;15.50;99.90;;;;;;10359288;28;20029;-61
2022/10/28 06:57:21;;;;;;;7.50;3.95;;;15.60;99.90;;;;;;10368757;28;20431;-61
2022/10/28 07:02:22;;;;;;;8.27;4.25;;;15.60;99.90;;;;;;10369151;28;21107;-61
2022/10/28 07:07:23;;;;;;;7.22;3.85;;;15.50;99.90;;;;;;10368162;28;20087;-61
2022/10/28 07:12:24;;;;;;;7.82;3.97;;;15.50;99.90;;;;;;10363066;28;20622;-61
2022/10/28 07:17:25;;;;;;;6.32;3.80;;;15.10;99.90;;;;;;10361168;28;20131;-61
2022/10/28 07:22:25;;;;;;;7.13;3.45;;;15.60;99.90;;;;;;10363711;28;20465;-61
2022/10/28 07:27:26;;;;;;;8.30;4.05;;;15.60;99.90;;;;;;10373868;28;20048;-63
2022/10/28 07:32:31;;;;;;;6.65;4.10;;;15.60;99.90;;;;;;10371689;28;20480;-61
2022/10/28 07:37:32;;;;;;;8.90;4.63;;;15.60;99.90;;;;;;10369127;28;20506;-61
2022/10/28 07:42:34;;;;;;;8.10;4.30;;;15.60;99.90;;;;;;10369130;28;20683;-62
2022/10/28 07:47:34;;;;;;;7.90;3.90;;;15.60;99.90;;;;;;10368349;28;20031;-61
2022/10/28 07:52:35;;;;;;;8.95;4.22;;;15.60;99.90;;;;;;10363949;28;20108;-61
2022/10/28 07:57:37;;;;;;;10.55;4.30;;;15.60;99.90;;;;;;10364844;28;20036;-61
2022/10/28 08:02:38;;;;;;;6.85;4.15;;;15.70;99.90;;;;;;10357257;28;20034;-61
2022/10/28 08:07:39;;;;;;;7.72;4.05;;;15.70;99.90;;;;;;10364580;28;20380;-61
2022/10/28 08:12:40;;;;;;;7.28;3.85;;;15.70;99.90;;;;;;10362949;28;20758;-60
2022/10/28 08:17:40;;;;;;;6.68;4.05;;;15.80;99.90;;;;;;10359133;28;20033;-62
2022/10/28 08:22:41;;;;;;;9.40;3.85;;;15.80;99.90;;;;;;10361516;28;20237;-60
2022/10/28 08:27:42;;;;;;;11.93;4.05;;;15.90;99.90;;;;;;10361843;28;20397;-60
2022/10/28 08:32:42;;;;;;;8.63;3.60;;;16.00;99.90;;;;;;10362847;28;20168;-61
2022/10/28 08:37:50;;;;;;;10.73;4.25;;;16.10;99.90;;;;;;10362866;28;20141;-60
2022/10/28 08:42:58;;;;;;;13.48;5.40;;;16.10;99.90;;;;;;10360528;28;20424;-60
2022/10/28 08:48:05;;;;;;;;;;;16.20;99.90;;;;;;10363716;28;20194;-61
2022/10/28 08:53:36;;;;;;;9.98;3.53;;;16.30;99.90;;;;;;10354052;28;20313;-61
2022/10/28 08:58:39;;;;;;;11.13;3.70;;;16.40;99.90;;;;;;10368732;28;20473;-61
2022/10/28 09:03:43;;;;;;;6.38;3.30;;;16.50;99.90;;;;;;10351775;28;20060;-61
2022/10/28 09:08:47;;;;;;;6.60;3.90;;;16.50;99.90;;;;;;10360137;28;20032;-61
2022/10/28 09:14:33;;;;;;;8.75;4.20;;;16.50;99.90;;;;;;10356183;28;20071;-60
2022/10/28 09:19:56;;;;;;;8.20;4.35;;;16.50;99.90;;;;;;10350027;28;20147;-60
2022/10/28 09:24:56;;;;;;;6.65;3.47;;;16.50;99.90;;;;;;10362168;28;20150;-60
2022/10/28 09:30:09;;;;;;;7.20;3.70;;;16.50;99.90;;;;;;10362085;28;20425;-60
2022/10/28 09:35:20;;;;;;;9.07;3.83;;;16.50;99.90;;;;;;10360471;28;20378;-60
2022/10/28 09:40:27;;;;;;;7.55;3.60;;;16.50;99.90;;;;;;10355610;28;20036;-60
2022/10/28 09:45:32;;;;;;;8.68;3.60;;;16.50;99.90;;;;;;10363900;28;20025;-61
2022/10/28 09:50:33;;;;;;;12.55;3.80;;;16.40;99.90;;;;;;10358091;28;20032;-61
2022/10/28 09:55:33;;;;;;;10.63;3.30;;;16.50;99.90;;;;;;10361656;28;20033;-61
2022/10/28 10:00:34;;;;;;;7.93;4.00;;;16.50;99.90;;;;;;10365882;28;20037;-61
2022/10/28 10:05:41;;;;;;;8.70;3.95;;;16.50;99.90;;;;;;10371026;28;20210;-61
2022/10/28 10:10:55;;;;;;;9.38;4.60;;;16.60;99.90;;;;;;10357280;28;20049;-61
2022/10/28 10:16:00;;;;;;;10.05;3.70;;;16.60;99.90;;;;;;10361202;28;20055;-63
2022/10/28 10:21:02;;;;;;;7.28;3.88;;;16.60;99.90;;;;;;10368355;28;20862;-62
2022/10/28 10:26:13;;;;;;;9.18;3.97;;;16.70;99.90;;;;;;10384179;28;20060;-63
2022/10/28 10:31:26;;;;;;;11.13;4.10;;;16.70;99.90;;;;;;10378454;28;20079;-62
2022/10/28 10:36:27;;;;;;;8.25;3.85;;;16.70;99.90;;;;;;10367800;28;20555;-61
2022/10/28 10:41:43;;;;;;;8.23;4.45;;;16.70;99.90;;;;;;10371357;28;20280;-62
2022/10/28 10:46:43;;;;;;;9.30;4.57;;;16.70;99.90;;;;;;10365698;28;20025;-62
2022/10/28 10:51:51;;;;;;;5.75;3.17;;;16.70;99.90;;;;;;10366993;28;20029;-62
2022/10/28 10:56:52;;;;;;;10.30;3.90;;;16.80;99.90;;;;;;10367710;28;20130;-62
2022/10/28 11:01:55;;;;;;;13.10;4.30;;;17.00;99.90;;;;;;10362794;28;20851;-62
2022/10/28 11:06:57;;;;;;;8.27;4.60;;;16.90;99.90;;;;;;10374200;28;20571;-62
2022/10/28 11:11:58;;;;;;;13.38;4.70;;;16.90;99.90;;;;;;10367860;28;20065;-61
2022/10/28 11:17:00;;;;;;;11.02;4.30;;;17.00;99.90;;;;;;10367085;28;20068;-61
2022/10/28 11:22:11;;;;;;;12.63;4.43;;;17.00;99.90;;;;;;10378311;28;20040;-62
2022/10/28 11:28:05;;;;;;;8.05;4.10;;;17.00;99.90;;;;;;10371147;28;20063;-62
2022/10/28 11:33:20;;;;;;;8.75;4.13;;;17.10;99.90;;;;;;10326963;28;20480;-61
2022/10/28 11:38:51;;;;;;;10.40;4.50;;;17.10;99.90;;;;;;10376891;28;20523;-62
2022/10/28 11:43:58;;;;;;;7.40;3.70;;;17.20;99.90;;;;;;10373036;28;20036;-61
2022/10/28 11:49:17;;;;;;;9.25;4.18;;;17.20;99.90;;;;;;10380653;28;20195;-61
2022/10/28 11:55:10;;;;;;;10.70;4.00;;;17.30;99.90;;;;;;10377403;28;20548;-62
2022/10/28 12:00:43;;;;;;;12.75;4.07;;;17.30;99.90;;;;;;10363791;28;20049;-62
2022/10/28 12:05:52;;;;;;;9.25;3.95;;;17.30;99.90;;;;;;10348078;28;20430;-61
2022/10/28 12:11:09;;;;;;;9.15;4.35;;;17.30;99.90;;;;;;10375845;28;20032;-62
2022/10/28 12:16:50;;;;;;;12.63;4.40;;;17.30;99.90;;;;;;10365313;28;20560;-63
2022/10/28 12:22:09;;;;;;;12.15;4.85;;;17.30;99.90;;;;;;10367157;28;20130;-63
2022/10/28 12:27:19;;;;;;;11.05;5.22;;;17.30;99.90;;;;;;10372758;28;20094;-63
2022/10/28 12:32:28;;;;;;;13.38;4.43;;;17.40;99.90;;;;;;10375745;28;20686;-63
2022/10/28 12:37:52;;;;;;;;;;;17.50;99.90;;;;;;10373643;28;20472;-64
2022/10/28 12:43:00;;;;;;;12.65;4.57;;;17.50;99.90;;;;;;10373378;28;20365;-65
2022/10/28 12:48:21;;;;;;;;;;;17.50;99.90;;;;;;10377012;28;20489;-64
2022/10/28 12:53:44;;;;;;;8.35;4.03;;;17.50;99.90;;;;;;10375762;28;19916;-63
2022/10/28 12:59:06;;;;;;;11.50;4.18;;;17.50;99.90;;;;;;10373974;28;20135;-63
2022/10/28 13:04:11;;;;;;;8.13;3.90;;;17.50;99.90;;;;;;10371044;28;20311;-63
2022/10/28 13:09:15;;;;;;;7.97;4.18;;;17.60;99.90;;;;;;10384020;28;20396;-63
2022/10/28 13:14:47;;;;;;;14.95;4.65;;;17.60;99.90;;;;;;10376736;28;20028;-64
2022/10/28 13:20:14;;;;;;;14.98;5.00;;;17.60;99.90;;;;;;10365522;28;20413;-63
2022/10/28 13:25:48;;;;;;;14.45;4.60;;;17.60;99.90;;;;;;10357557;28;20273;-63
2022/10/28 13:30:58;;;;;;;8.52;4.53;;;17.60;99.90;;;;;;10362778;28;20453;-64
2022/10/28 13:36:18;;;;;;;9.95;4.50;;;17.60;99.90;;;;;;10363987;28;20707;-62
2022/10/28 13:41:35;;;;;;;10.85;5.03;;;17.60;99.90;;;;;;10360456;28;20134;-61
2022/10/28 13:46:58;;;;;;;6.97;3.78;;;17.60;99.90;;;;;;10378924;28;20299;-61
2022/10/28 13:52:13;;;;;;;10.57;4.05;;;17.60;99.90;;;;;;10363900;28;20037;-62
2022/10/28 13:57:26;;;;;;;8.50;3.97;;;17.60;99.90;;;;;;10356327;28;20044;-63
2022/10/28 14:02:37;;;;;;;8.75;4.10;;;17.60;99.90;;;;;;10347596;28;20123;-61
2022/10/28 14:07:52;;;;;;;8.02;4.55;;;17.60;99.90;;;;;;10346758;28;20464;-61
2022/10/28 14:13:01;;;;;;;6.97;3.67;;;17.60;99.90;;;;;;10355067;28;20167;-64
2022/10/28 14:18:17;;;;;;;9.48;4.03;;;17.60;99.90;;;;;;10349078;28;20492;-62
2022/10/28 14:23:21;;;;;;;10.75;3.92;;;17.60;99.90;;;;;;10362191;28;20080;-62
2022/10/28 14:28:28;;;;;;;8.85;3.88;;;17.60;99.90;;;;;;10349552;28;20102;-63
2022/10/28 14:33:29;;;;;;;8.15;3.67;;;17.60;99.90;;;;;;10366877;28;20033;-66
2022/10/28 14:38:38;;;;;;;11.23;4.55;;;17.70;99.90;;;;;;10376425;28;20040;-63
2022/10/28 14:44:09;;;;;;;7.63;3.88;;;17.70;99.90;;;;;;10378299;28;20093;-61
2022/10/28 14:49:29;;;;;;;8.98;3.97;;;17.70;99.90;;;;;;10376409;28;20289;-62
2022/10/28 14:54:40;;;;;;;10.27;4.18;;;17.70;99.90;;;;;;10368174;28;20567;-62
2022/10/28 14:59:43;;;;;;;10.65;4.15;;;17.70;99.90;;;;;;10378941;28;20050;-62
2022/10/28 15:04:46;;;;;;;11.45;4.13;;;17.70;99.90;;;;;;10373116;28;20020;-61
2022/10/28 15:09:52;;;;;;;7.97;3.70;;;17.70;99.90;;;;;;10376865;28;20040;-63
2022/10/28 15:14:54;;;;;;;13.50;4.30;;;17.60;99.90;;;;;;10375395;28;20032;-63
2022/10/28 15:19:59;;;;;;;10.00;4.60;;;17.70;99.90;;;;;;10382248;28;20131;-65
2022/10/28 15:25:01;;;;;;;13.65;5.07;;;17.70;99.90;;;;;;10380358;28;20339;-64
2022/10/28 15:30:04;;;;;;;14.00;4.82;;;17.70;99.90;;;;;;10379578;28;20048;-65
2022/10/28 15:35:28;;;;;;;16.70;4.80;;;17.70;99.90;;;;;;10386166;28;20018;-65
2022/10/28 15:40:33;;;;;;;15.60;5.20;;;17.80;99.90;;;;;;10420804;28;20531;-64
2022/10/28 15:45:35;;;;;;;13.70;4.32;;;17.70;99.90;;;;;;10451905;28;20037;-64
2022/10/28 15:50:36;;;;;;;8.55;4.07;;;17.70;99.90;;;;;;10446211;28;20556;-63
2022/10/28 15:55:43;;;;;;;14.93;4.90;;;17.70;99.90;;;;;;10456409;28;20444;-66
2022/10/28 16:00:55;;;;;;;13.53;4.80;;;17.70;99.90;;;;;;10450821;28;20032;-63
2022/10/28 16:05:57;;;;;;;9.77;3.47;;;17.70;99.90;;;;;;10446715;28;20029;-65
2022/10/28 16:11:02;;;;;;;9.05;4.45;;;17.60;99.90;;;;;;10448685;28;20016;-61
2022/10/28 16:16:11;;;;;;;8.10;4.00;;;17.60;99.90;;;;;;10451684;28;20496;-62
2022/10/28 16:21:22;;;;;;;6.97;4.50;;;17.60;99.90;;;;;;10443982;28;20072;-62
2022/10/28 16:26:27;;;;;;;9.60;3.88;;;17.60;99.90;;;;;;10445229;28;20101;-61
2022/10/28 16:31:29;;;;;;;11.50;4.40;;;17.50;99.90;;;;;;10450567;28;20035;-64
2022/10/28 16:36:31;;;;;;;7.80;3.90;;;17.50;99.90;;;;;;10430793;28;20035;-61
2022/10/28 16:41:31;;;;;;;10.85;4.20;;;17.50;99.90;;;;;;10440355;28;20410;-61
2022/10/28 16:46:33;;;;;;;12.88;4.35;;;17.50;99.90;;;;;;10442734;28;20044;-64
2022/10/28 16:51:34;;;;;;;12.60;4.03;;;17.50;99.90;;;;;;10449085;28;20032;-61
2022/10/28 16:56:35;;;;;;;9.40;4.53;;;17.40;99.90;;;;;;10436332;28;20056;-61
2022/10/28 17:01:36;;;;;;;10.38;4.18;;;17.50;99.90;;;;;;10430575;28;20033;-63
2022/10/28 17:06:37;;;;;;;9.30;3.67;;;17.40;99.90;;;;;;10428300;28;20116;-61
2022/10/28 17:11:37;;;;;;;10.35;3.70;;;17.40;99.90;;;;;;10421445;28;20041;-64
2022/10/28 17:16:38;;;;;;;7.43;3.55;;;17.40;99.90;;;;;;10426266;28;20037;-63
2022/10/28 17:21:41;;;;;;;6.47;3.38;;;17.40;99.90;;;;;;10428447;28;20255;-62
2022/10/28 17:26:44;;;;;;;8.20;3.40;;;17.40;99.90;;;;;;10415188;28;20147;-62
2022/10/28 17:31:45;;;;;;;9.45;4.38;;;17.40;99.90;;;;;;10432464;28;20390;-62
2022/10/28 17:36:46;;;;;;;7.53;3.42;;;17.30;99.90;;;;;;10438000;28;20041;-64
2022/10/28 17:41:47;;;;;;;8.15;3.55;;;17.30;99.90;;;;;;10447556;28;20150;-62
2022/10/28 17:46:48;;;;;;;9.27;3.42;;;17.30;99.90;;;;;;10425435;28;20026;-62
2022/10/28 17:51:50;;;;;;;7.05;3.42;;;17.30;99.90;;;;;;10430679;28;20059;-62
2022/10/28 17:56:51;;;;;;;7.13;3.80;;;17.30;99.90;;;;;;10421094;28;20029;-61
2022/10/28 18:01:53;;;;;;;9.00;3.85;;;17.30;99.90;;;;;;10420575;28;21275;-62
2022/10/28 18:06:55;;;;;;;6.47;3.30;;;17.30;99.90;;;;;;10429670;28;20025;-63
2022/10/28 18:11:56;;;;;;;7.85;3.75;;;17.30;99.90;;;;;;10440282;28;20483;-62
2022/10/28 18:16:57;;;;;;;7.60;3.38;;;17.30;99.90;;;;;;10436105;28;20547;-61
2022/10/28 18:21:57;;;;;;;6.60;3.55;;;17.20;99.90;;;;;;10441222;28;20037;-62
2022/10/28 18:26:58;;;;;;;9.07;3.95;;;17.20;99.90;;;;;;10451360;28;20036;-65
2022/10/28 18:32:02;;;;;;;8.18;2.83;;;17.20;99.90;;;;;;10450848;28;20036;-62
2022/10/28 18:37:06;;;;;;;7.90;3.40;;;17.20;99.90;;;;;;10436883;28;20033;-66
2022/10/28 18:42:07;;;;;;;6.45;3.42;;;17.20;99.90;;;;;;10425694;28;20029;-62
2022/10/28 18:47:08;;;;;;;6.50;3.13;;;17.20;99.90;;;;;;10437336;28;20238;-62
2022/10/28 18:52:09;;;;;;;6.47;3.38;;;17.10;99.90;;;;;;10432664;28;20090;-65
2022/10/28 18:57:09;;;;;;;6.53;3.22;;;17.10;99.90;;;;;;10437601;28;20565;-63
2022/10/28 19:02:10;;;;;;;6.63;2.95;;;17.10;99.90;;;;;;10435051;28;20034;-62
2022/10/28 19:07:11;;;;;;;7.07;3.25;;;17.10;99.90;;;;;;10431655;28;20056;-66
2022/10/28 19:12:11;;;;;;;5.85;3.20;;;17.10;99.90;;;;;;10437070;28;20029;-63
2022/10/28 19:17:12;;;;;;;7.30;3.05;;;17.00;99.90;;;;;;10432481;28;20037;-67
2022/10/28 19:22:17;;;;;;;5.22;3.33;;;17.00;99.90;;;;;;10432830;28;20410;-62
2022/10/28 19:27:18;;;;;;;5.97;3.10;;;17.00;99.90;;;;;;10435104;28;20036;-63
2022/10/28 19:32:18;;;;;;;6.47;3.15;;;17.00;99.90;;;;;;10432402;28;20497;-62
2022/10/28 19:37:20;;;;;;;5.65;3.47;;;17.00;99.90;;;;;;10435175;28;20056;-62
2022/10/28 19:42:21;;;;;;;6.63;3.35;;;17.00;99.90;;;;;;10436865;28;20033;-63
2022/10/28 19:47:21;;;;;;;6.03;2.70;;;16.90;99.90;;;;;;10434733;28;20029;-62
2022/10/28 19:52:22;;;;;;;7.30;2.85;;;16.90;99.90;;;;;;10428038;28;20348;-63
2022/10/28 19:57:23;;;;;;;8.35;3.03;;;16.90;99.90;;;;;;10425868;28;20129;-63
2022/10/28 20:02:24;;;;;;;9.13;3.90;;;16.90;99.90;;;;;;10426638;28;20072;-62
2022/10/28 20:07:24;;;;;;;5.15;2.80;;;16.90;99.90;;;;;;10426706;28;20086;-62
2022/10/28 20:12:25;;;;;;;5.10;2.80;;;16.90;99.90;;;;;;10425801;28;20024;-62
2022/10/28 20:17:26;;;;;;;6.22;3.00;;;16.90;99.90;;;;;;10427552;28;20040;-61
2022/10/28 20:22:27;;;;;;;5.10;2.90;;;16.80;99.90;;;;;;10432474;28;20086;-62
2022/10/28 20:27:28;;;;;;;5.85;2.78;;;16.80;99.90;;;;;;10422651;28;20027;-62
2022/10/28 20:32:28;;;;;;;5.70;2.67;;;16.80;99.90;;;;;;10423416;28;20032;-61
2022/10/28 20:37:29;;;;;;;6.13;2.53;;;16.80;99.90;;;;;;10440533;28;20105;-61
2022/10/28 20:42:30;;;;;;;6.15;2.75;;;16.80;99.90;;;;;;10435223;28;20037;-61
2022/10/28 20:47:30;;;;;;;6.20;2.92;;;16.70;99.90;;;;;;10439595;28;20039;-61
2022/10/28 20:52:31;;;;;;;6.28;2.58;;;16.70;99.90;;;;;;10432869;28;20038;-62
2022/10/28 20:57:31;;;;;;;4.85;2.70;;;16.70;99.90;;;;;;10437724;28;20127;-62
2022/10/28 21:02:32;;;;;;;4.18;2.38;;;16.70;99.90;;;;;;10436215;28;20048;-61
2022/10/28 21:07:33;;;;;;;3.58;2.10;;;16.70;99.90;;;;;;10437330;28;20025;-62
2022/10/28 21:12:34;;;;;;;3.88;2.47;;;16.70;99.90;;;;;;10436176;28;20020;-61
2022/10/28 21:17:35;;;;;;;5.85;3.17;;;16.60;99.90;;;;;;10445678;28;20033;-64
2022/10/28 21:22:35;;;;;;;6.32;2.45;;;16.70;99.90;;;;;;10437366;28;20045;-62
2022/10/28 21:27:36;;;;;;;5.22;2.83;;;16.60;99.90;;;;;;10422595;28;20039;-62
2022/10/28 21:32:37;;;;;;;3.75;2.20;;;16.60;99.90;;;;;;10422419;28;20017;-62
2022/10/28 21:37:37;;;;;;;5.45;2.50;;;16.50;99.90;;;;;;10424460;28;20127;-62
2022/10/28 21:42:38;;;;;;;6.50;2.42;;;16.50;99.90;;;;;;10426898;28;20550;-63
2022/10/28 21:47:39;;;;;;;5.35;2.53;;;16.50;99.90;;;;;;10426485;28;20635;-62
2022/10/28 21:52:39;;;;;;;5.38;2.30;;;16.50;99.90;;;;;;10428119;28;20382;-62
2022/10/28 21:57:40;;;;;;;4.47;2.05;;;16.50;99.90;;;;;;10431125;28;20037;-62
2022/10/28 22:02:40;;;;;;;5.82;2.60;;;16.40;99.90;;;;;;10449779;28;20035;-61
2022/10/28 22:07:41;;;;;;;6.47;2.13;;;16.40;99.90;;;;;;10454931;28;20017;-63
2022/10/28 22:12:42;;;;;;;3.60;1.80;;;16.40;99.90;;;;;;10454285;28;20032;-62
2022/10/28 22:17:43;;;;;;;5.28;1.90;;;16.40;99.90;;;;;;10451745;28;20091;-61
2022/10/28 22:22:43;;;;;;;3.35;1.83;;;16.40;99.90;;;;;;10463416;28;20050;-62
2022/10/28 22:27:44;;;;;;;6.68;2.30;;;16.40;99.90;;;;;;10457729;28;20032;-62
2022/10/28 22:32:44;;;;;;;7.28;2.00;;;16.30;99.90;;;;;;10460707;28;20025;-61
2022/10/28 22:37:45;;;;;;;5.82;1.85;;;16.30;99.90;;;;;;10458020;28;20033;-62
2022/10/28 22:42:46;;;;;;;5.25;1.80;;;16.30;99.90;;;;;;10476164;28;20025;-61
2022/10/28 22:47:49;;;;;;;5.30;2.33;;;16.30;99.90;;;;;;10464444;28;20508;-62
2022/10/28 22:52:50;;;;;;;3.42;2.13;;;16.30;99.90;;;;;;10461348;28;20025;-61
2022/10/28 22:57:52;;;;;;;4.28;1.27;;;16.20;99.90;;;;;;10460642;28;20045;-62
2022/10/28 23:02:55;;;;;;;5.60;1.48;;;16.20;99.90;;;;;;10460714;28;20056;-62
2022/10/28 23:07:58;;;;;;;6.38;1.63;;;16.20;99.90;;;;;;10458238;28;20051;-62
2022/10/28 23:13:01;;;;;;;6.57;1.77;;;16.20;99.90;;;;;;10456171;28;20025;-62
2022/10/28 23:18:01;;;;;;;6.40;2.05;;;16.20;99.90;;;;;;10458030;28;20387;-63
2022/10/28 23:23:02;;;;;;;4.18;1.60;;;16.20;99.90;;;;;;10456992;28;20053;-64
2022/10/28 23:28:04;;;;;;;3.90;1.60;;;16.20;99.90;;;;;;10457456;28;20504;-62
2022/10/28 23:33:05;;;;;;;4.55;1.60;;;16.10;99.90;;;;;;10458978;28;20060;-62
2022/10/28 23:38:07;;;;;;;1.73;1.42;;;16.10;99.90;;;;;;10458667;28;20452;-62
2022/10/28 23:43:08;;;;;;;5.15;1.70;;;16.10;99.90;;;;;;10460544;28;20025;-62
2022/10/28 23:48:09;;;;;;;5.78;1.65;;;16.10;99.90;;;;;;10459754;28;20653;-62
2022/10/28 23:53:10;;;;;;;4.65;1.63;;;16.10;99.90;;;;;;10457640;28;20024;-61
2022/10/28 23:58:11;;;;;;;4.30;1.45;;;16.10;99.90;;;;;;10447782;28;20033;-62
